createdAt,value
2023-11-16T00:00:49.503Z,79.25
2023-11-16T00:03:17.993Z,79.02
2023-11-16T00:05:45.882Z,79.13
2023-11-16T00:08:14.309Z,78.97
2023-11-16T00:10:41.979Z,79.04
2023-11-16T00:13:10.702Z,79.04
2023-11-16T00:15:38.015Z,79.33
2023-11-16T00:18:07.126Z,79.30
2023-11-16T00:20:37.400Z,79.15
2023-11-16T00:23:08.786Z,79.52
2023-11-16T00:25:38.789Z,79.25
2023-11-16T00:28:06.195Z,78.97
2023-11-16T00:30:34.013Z,79.26
2023-11-16T00:33:01.800Z,79.02
2023-11-16T00:35:30.656Z,79.14
2023-11-16T00:37:57.684Z,79.05
2023-11-16T00:40:25.273Z,79.61
2023-11-16T00:42:53.634Z,79.33
2023-11-16T00:45:21.537Z,79.35
2023-11-16T00:47:49.375Z,79.61
2023-11-16T00:50:16.714Z,79.29
2023-11-16T00:52:47.765Z,79.99
2023-11-16T00:55:16.780Z,79.39
2023-11-16T00:57:49.410Z,79.82
2023-11-16T01:00:17.621Z,79.31
2023-11-16T01:02:47.579Z,79.51
2023-11-16T01:05:14.296Z,79.13
2023-11-16T01:07:41.332Z,79.55
2023-11-16T01:10:12.018Z,79.53
2023-11-16T01:12:40.161Z,79.73
2023-11-16T01:15:12.246Z,79.63
2023-11-16T01:17:40.671Z,79.60
2023-11-16T01:20:19.521Z,79.04
2023-11-16T01:23:02.400Z,79.08
2023-11-16T01:25:32.084Z,79.74
2023-11-16T01:27:59.970Z,78.95
2023-11-16T01:30:27.439Z,78.79
2023-11-16T01:32:54.654Z,79.35
2023-11-16T01:35:26.917Z,79.76
2023-11-16T01:37:57.698Z,78.94
2023-11-16T01:40:28.861Z,79.21
2023-11-16T01:42:58.037Z,79.57
2023-11-16T01:45:28.275Z,79.23
2023-11-16T01:47:55.567Z,79.23
2023-11-16T01:50:23.818Z,79.33
2023-11-16T01:52:50.738Z,79.63
2023-11-16T01:55:18.697Z,79.31
2023-11-16T01:57:46.019Z,79.84
2023-11-16T02:00:16.262Z,79.92
2023-11-16T02:02:46.079Z,79.78
2023-11-16T02:05:13.414Z,79.80
2023-11-16T02:07:40.581Z,79.97
2023-11-16T02:10:08.476Z,80.17
2023-11-16T02:12:35.613Z,80.37
2023-11-16T02:15:03.354Z,80.03
2023-11-16T02:17:31.718Z,80.24
2023-11-16T02:20:00.977Z,80.46
2023-11-16T02:22:30.616Z,80.55
2023-11-16T02:24:59.323Z,80.25
2023-11-16T02:27:28.487Z,80.59
2023-11-16T02:29:55.169Z,80.88
2023-11-16T02:32:22.073Z,80.91
2023-11-16T02:34:49.891Z,81.27
2023-11-16T02:37:16.451Z,81.57
2023-11-16T02:39:45.204Z,81.64
2023-11-16T02:42:14.324Z,81.57
2023-11-16T02:44:41.321Z,82.06
2023-11-16T02:47:09.479Z,82.44
2023-11-16T02:49:38.130Z,82.57
2023-11-16T02:52:05.562Z,82.31
2023-11-16T02:54:32.782Z,82.18
2023-11-16T02:57:00.199Z,82.10
2023-11-16T02:59:27.105Z,81.96
2023-11-16T03:01:53.963Z,81.58
2023-11-16T03:04:20.823Z,82.25
2023-11-16T03:06:48.243Z,82.14
2023-11-16T03:09:17.771Z,82.33
2023-11-16T03:11:45.189Z,82.58
2023-11-16T03:14:12.117Z,82.40
2023-11-16T03:16:53.055Z,82.63
2023-11-16T03:19:20.444Z,82.61
2023-11-16T03:21:47.623Z,82.80
2023-11-16T03:24:15.763Z,82.94
2023-11-16T03:26:43.024Z,82.89
2023-11-16T03:29:10.313Z,82.57
2023-11-16T03:31:37.546Z,82.67
2023-11-16T03:34:07.552Z,82.30
2023-11-16T03:36:34.426Z,82.86
2023-11-16T03:39:01.476Z,82.62
2023-11-16T03:41:28.317Z,82.96
2023-11-16T03:43:55.349Z,83.22
2023-11-16T03:46:22.918Z,83.25
2023-11-16T03:48:50.920Z,83.14
2023-11-16T03:51:17.884Z,83.31
2023-11-16T03:53:44.960Z,83.47
2023-11-16T03:56:12.491Z,83.54
2023-11-16T03:58:39.325Z,83.35
2023-11-16T04:01:06.345Z,83.32
2023-11-16T04:03:35.014Z,83.18
2023-11-16T04:06:03.631Z,83.58
2023-11-16T04:08:30.825Z,83.76
2023-11-16T04:10:58.735Z,83.42
2023-11-16T04:13:26.140Z,83.82
2023-11-16T04:15:54.969Z,83.96
2023-11-16T04:18:22.459Z,84.28
2023-11-16T04:20:51.355Z,83.80
2023-11-16T04:23:18.670Z,83.41
2023-11-16T04:25:45.937Z,82.91
2023-11-16T04:28:14.408Z,83.17
2023-11-16T04:30:41.582Z,83.43
2023-11-16T04:33:09.064Z,83.01
2023-11-16T04:35:36.479Z,82.96
2023-11-16T04:38:03.754Z,82.46
2023-11-16T04:40:31.073Z,82.54
2023-11-16T04:42:58.054Z,82.03
2023-11-16T04:45:27.560Z,82.39
2023-11-16T04:47:58.666Z,82.13
2023-11-16T04:50:32.806Z,82.08
2023-11-16T04:53:00.458Z,82.31
2023-11-16T04:55:27.671Z,82.16
2023-11-16T04:57:55.236Z,82.67
2023-11-16T05:00:22.565Z,83.18
2023-11-16T05:02:50.282Z,83.68
2023-11-16T05:05:17.577Z,82.96
2023-11-16T05:07:44.679Z,83.66
2023-11-16T05:10:12.757Z,85.17
2023-11-16T05:12:40.873Z,86.15
2023-11-16T05:15:09.428Z,86.77
2023-11-16T05:17:37.131Z,87.28
2023-11-16T05:20:05.377Z,87.81
2023-11-16T05:22:33.167Z,88.24
2023-11-16T05:25:00.441Z,88.24
2023-11-16T05:27:28.622Z,88.44
2023-11-16T05:29:55.875Z,88.39
2023-11-16T05:32:22.951Z,88.55
2023-11-16T05:34:49.940Z,89.19
2023-11-16T05:37:16.930Z,89.21
2023-11-16T05:39:44.433Z,89.41
2023-11-16T05:42:11.418Z,89.34
2023-11-16T05:44:38.660Z,88.26
2023-11-16T05:47:05.901Z,87.91
2023-11-16T05:49:33.236Z,88.22
2023-11-16T05:52:03.459Z,88.09
2023-11-16T05:54:30.902Z,87.91
2023-11-16T05:56:57.742Z,88.18
2023-11-16T05:59:25.134Z,87.50
2023-11-16T06:01:52.087Z,87.24
2023-11-16T06:04:23.440Z,87.44
2023-11-16T06:06:50.705Z,87.34
2023-11-16T06:09:17.935Z,87.15
2023-11-16T06:11:44.802Z,86.86
2023-11-16T06:14:12.951Z,86.71
2023-11-16T06:16:46.158Z,86.60
2023-11-16T06:19:16.385Z,86.27
2023-11-16T06:21:43.631Z,86.19
2023-11-16T06:24:11.303Z,85.78
2023-11-16T06:26:38.550Z,85.77
2023-11-16T06:29:07.441Z,86.17
2023-11-16T06:31:34.514Z,85.90
2023-11-16T06:34:01.658Z,85.66
2023-11-16T06:36:28.682Z,85.72
2023-11-16T06:38:56.836Z,86.03
2023-11-16T06:41:24.043Z,86.70
2023-11-16T06:43:53.963Z,87.12
2023-11-16T06:46:21.090Z,87.80
2023-11-16T06:48:49.126Z,87.72
2023-11-16T06:51:18.272Z,87.76
2023-11-16T06:53:45.655Z,88.00
2023-11-16T06:56:12.601Z,88.10
2023-11-16T06:58:41.435Z,88.26
2023-11-16T07:01:08.738Z,88.18
2023-11-16T07:03:35.790Z,88.00
2023-11-16T07:06:03.573Z,87.95
2023-11-16T07:08:31.749Z,87.51
2023-11-16T07:10:58.966Z,87.00
2023-11-16T07:13:26.446Z,87.27
2023-11-16T07:15:53.797Z,87.29
2023-11-16T07:18:21.180Z,87.28
2023-11-16T07:20:48.684Z,87.59
2023-11-16T07:23:16.914Z,88.12
2023-11-16T07:25:44.991Z,88.22
2023-11-16T07:28:12.929Z,88.23
2023-11-16T07:30:39.885Z,88.40
2023-11-16T07:33:07.872Z,88.25
2023-11-16T07:35:35.179Z,87.85
2023-11-16T07:38:03.053Z,88.00
2023-11-16T07:40:30.363Z,88.19
2023-11-16T07:42:58.254Z,87.71
2023-11-16T07:45:27.827Z,87.24
2023-11-16T07:48:00.773Z,87.61
2023-11-16T07:50:31.342Z,87.82
2023-11-16T07:53:01.158Z,88.49
2023-11-16T07:55:30.016Z,88.79
2023-11-16T07:57:58.286Z,88.55
2023-11-16T08:00:35.756Z,88.34
2023-11-16T08:03:21.544Z,88.04
2023-11-16T08:05:49.399Z,87.98
2023-11-16T08:08:20.238Z,87.68
2023-11-16T08:10:49.916Z,86.97
2023-11-16T08:13:19.584Z,86.48
2023-11-16T08:15:55.018Z,86.66
2023-11-16T08:18:23.378Z,87.00
2023-11-16T08:20:50.180Z,87.13
2023-11-16T08:23:19.236Z,86.43
2023-11-16T08:25:48.950Z,86.58
2023-11-16T08:28:16.030Z,86.56
2023-11-16T08:30:44.436Z,86.67
2023-11-16T08:33:12.592Z,86.58
2023-11-16T08:35:39.676Z,86.91
2023-11-16T08:38:06.794Z,86.73
2023-11-16T08:40:35.291Z,86.33
2023-11-16T08:43:02.794Z,86.10
2023-11-16T08:45:30.422Z,86.09
2023-11-16T08:47:58.778Z,86.06
2023-11-16T08:50:26.617Z,85.92
2023-11-16T08:52:53.396Z,86.05
2023-11-16T08:55:24.023Z,85.73
2023-11-16T08:57:52.180Z,85.31
2023-11-16T09:00:29.459Z,85.71
2023-11-16T09:03:02.723Z,85.56
2023-11-16T09:05:33.088Z,85.41
2023-11-16T09:08:02.494Z,85.29
2023-11-16T09:10:35.679Z,84.85
2023-11-16T09:13:04.620Z,84.50
2023-11-16T09:15:32.659Z,84.68
2023-11-16T09:18:04.078Z,85.00
2023-11-16T09:20:31.347Z,84.76
2023-11-16T09:23:01.733Z,84.58
2023-11-16T09:25:30.591Z,84.71
2023-11-16T09:28:00.291Z,85.07
2023-11-16T09:30:29.072Z,85.03
2023-11-16T09:32:56.936Z,84.99
2023-11-16T09:35:24.809Z,85.29
2023-11-16T09:37:56.586Z,85.60
2023-11-16T09:40:29.749Z,85.73
2023-11-16T09:42:59.877Z,85.93
2023-11-16T09:45:32.350Z,86.17
2023-11-16T09:48:13.845Z,85.91
2023-11-16T09:50:46.077Z,85.56
2023-11-16T09:53:15.330Z,85.32
2023-11-16T09:55:45.403Z,85.58
2023-11-16T09:58:18.492Z,84.91
2023-11-16T10:00:50.027Z,84.96
2023-11-16T10:03:25.803Z,86.39
2023-11-16T10:05:56.644Z,86.40
2023-11-16T10:08:25.189Z,85.67
2023-11-16T10:11:07.420Z,85.67
2023-11-16T10:13:36.022Z,85.58
2023-11-16T10:16:12.485Z,85.29
2023-11-16T10:18:40.076Z,84.90
2023-11-16T10:21:07.088Z,85.31
2023-11-16T10:23:34.804Z,84.86
2023-11-16T10:26:01.960Z,85.04
2023-11-16T10:28:29.272Z,84.80
2023-11-16T10:30:59.093Z,84.27
2023-11-16T10:33:29.873Z,84.02
2023-11-16T10:35:58.493Z,83.49
2023-11-16T10:38:30.174Z,83.53
2023-11-16T10:40:58.339Z,83.39
2023-11-16T10:43:29.760Z,83.04
2023-11-16T10:46:03.211Z,82.41
2023-11-16T10:48:30.853Z,82.54
2023-11-16T10:51:01.574Z,82.71
2023-11-16T10:53:40.355Z,82.59
2023-11-16T10:56:13.111Z,81.84
2023-11-16T10:58:41.972Z,82.25
2023-11-16T11:01:17.659Z,82.06
2023-11-16T11:03:47.150Z,81.65
2023-11-16T11:06:24.121Z,81.89
2023-11-16T11:08:55.538Z,81.25
2023-11-16T11:11:26.286Z,81.59
2023-11-16T11:13:59.971Z,80.83
2023-11-16T11:16:29.350Z,80.93
2023-11-16T11:18:58.455Z,81.06
2023-11-16T11:21:28.248Z,81.25
2023-11-16T11:24:14.399Z,80.78
2023-11-16T11:26:49.638Z,79.72
2023-11-16T11:29:17.918Z,79.51
2023-11-16T11:32:03.515Z,79.40
2023-11-16T11:34:32.664Z,79.78
2023-11-16T11:37:01.455Z,79.10
2023-11-16T11:39:48.643Z,79.28
2023-11-16T11:42:18.180Z,78.85
2023-11-16T11:44:55.465Z,79.59
2023-11-16T11:47:25.679Z,79.57
2023-11-16T11:49:55.762Z,78.64
2023-11-16T11:52:26.112Z,78.54
2023-11-16T11:54:53.113Z,78.56
2023-11-16T11:57:27.669Z,78.48
2023-11-16T12:00:02.307Z,78.92
2023-11-16T12:02:30.005Z,78.95
2023-11-16T12:04:57.195Z,79.45
2023-11-16T12:07:25.857Z,79.45
2023-11-16T12:09:53.466Z,80.08
2023-11-16T12:12:21.167Z,80.72
2023-11-16T12:14:49.572Z,81.26
2023-11-16T12:17:18.525Z,81.22
2023-11-16T12:19:53.487Z,81.12
2023-11-16T12:22:22.045Z,81.47
2023-11-16T12:24:52.388Z,81.37
2023-11-16T12:27:22.300Z,81.28
2023-11-16T12:29:57.090Z,81.86
2023-11-16T12:32:25.494Z,81.82
2023-11-16T12:34:54.290Z,82.17
2023-11-16T12:37:23.197Z,82.03
2023-11-16T12:39:52.045Z,82.59
2023-11-16T12:42:23.690Z,83.03
2023-11-16T12:44:51.907Z,83.20
2023-11-16T12:47:22.509Z,82.57
2023-11-16T12:49:53.733Z,82.82
2023-11-16T12:52:22.497Z,83.08
2023-11-16T12:54:53.070Z,83.27
2023-11-16T12:57:20.309Z,83.88
2023-11-16T12:59:47.265Z,83.82
2023-11-16T13:02:15.066Z,84.23
2023-11-16T13:04:42.493Z,84.12
2023-11-16T13:07:10.200Z,84.35
2023-11-16T13:09:37.482Z,83.86
2023-11-16T13:12:12.365Z,84.09
2023-11-16T13:14:47.301Z,83.44
2023-11-16T13:17:14.330Z,83.42
2023-11-16T13:19:41.871Z,83.65
2023-11-16T13:22:09.751Z,84.51
2023-11-16T13:24:36.903Z,84.84
2023-11-16T13:27:05.217Z,84.94
2023-11-16T13:29:32.930Z,84.92
2023-11-16T13:32:00.019Z,84.64
2023-11-16T13:34:26.938Z,84.91
2023-11-16T13:36:54.292Z,85.03
2023-11-16T13:39:21.164Z,85.19
2023-11-16T13:41:48.755Z,85.22
2023-11-16T13:44:15.764Z,85.50
2023-11-16T13:46:43.072Z,85.76
2023-11-16T13:49:09.959Z,85.78
2023-11-16T13:51:40.493Z,85.77
2023-11-16T13:54:07.979Z,86.02
2023-11-16T13:56:35.628Z,86.13
2023-11-16T13:59:03.369Z,86.52
2023-11-16T14:01:31.000Z,86.46
2023-11-16T14:03:58.158Z,86.48
2023-11-16T14:06:25.704Z,86.42
2023-11-16T14:08:53.401Z,86.62
2023-11-16T14:11:21.653Z,86.83
2023-11-16T14:13:49.777Z,86.60
2023-11-16T14:16:17.012Z,86.66
2023-11-16T14:18:44.093Z,86.80
2023-11-16T14:21:14.186Z,86.19
2023-11-16T14:23:45.611Z,85.89
2023-11-16T14:26:13.850Z,85.86
2023-11-16T14:28:41.048Z,85.90
2023-11-16T14:31:09.550Z,86.03
2023-11-16T14:33:36.734Z,85.54
2023-11-16T14:36:05.347Z,85.63
2023-11-16T14:38:33.236Z,85.00
2023-11-16T14:41:00.599Z,84.85
2023-11-16T14:43:27.680Z,85.20
2023-11-16T14:45:54.507Z,85.19
2023-11-16T14:48:22.064Z,85.29
2023-11-16T14:50:51.787Z,85.63
2023-11-16T14:53:22.368Z,85.77
2023-11-16T14:55:49.940Z,85.68
2023-11-16T14:58:16.979Z,85.66
2023-11-16T15:00:44.109Z,85.99
2023-11-16T15:03:11.559Z,85.99
2023-11-16T15:05:39.101Z,86.15
2023-11-16T15:08:06.705Z,85.96
2023-11-16T15:10:33.579Z,85.64
2023-11-16T15:13:00.674Z,85.78
2023-11-16T15:15:28.089Z,85.88
2023-11-16T15:17:55.421Z,86.23
2023-11-16T15:20:27.358Z,86.43
2023-11-16T15:22:57.777Z,86.41
2023-11-16T15:25:28.686Z,86.63
2023-11-16T15:27:56.256Z,87.07
2023-11-16T15:30:23.553Z,87.64
2023-11-16T15:32:54.590Z,88.12
2023-11-16T15:35:26.111Z,88.56
2023-11-16T15:37:58.880Z,88.84
2023-11-16T15:40:26.811Z,88.74
2023-11-16T15:42:54.312Z,88.70
2023-11-16T15:45:21.957Z,89.00
2023-11-16T15:47:50.076Z,89.17
2023-11-16T15:50:17.010Z,89.50
2023-11-16T15:52:44.463Z,89.72
2023-11-16T15:55:13.407Z,89.78
2023-11-16T15:57:40.920Z,89.91
2023-11-16T16:00:20.108Z,89.88
2023-11-16T16:02:48.734Z,90.05
2023-11-16T16:05:16.362Z,90.22
2023-11-16T16:07:43.264Z,90.56
2023-11-16T16:10:10.587Z,90.75
2023-11-16T16:12:37.924Z,90.52
2023-11-16T16:15:07.650Z,90.68
2023-11-16T16:17:34.685Z,90.45
2023-11-16T16:20:04.832Z,90.54
2023-11-16T16:22:32.114Z,90.64
2023-11-16T16:24:59.683Z,90.93
2023-11-16T16:27:26.535Z,91.11
2023-11-16T16:29:53.670Z,91.16
2023-11-16T16:32:20.531Z,90.79
2023-11-16T16:34:47.384Z,90.77
2023-11-16T16:37:14.356Z,90.62
2023-11-16T16:39:42.790Z,90.58
2023-11-16T16:42:11.056Z,90.43
2023-11-16T16:44:38.389Z,90.63
2023-11-16T16:47:07.757Z,90.69
2023-11-16T16:49:34.894Z,90.80
2023-11-16T16:52:01.941Z,90.97
2023-11-16T16:54:31.805Z,90.81
2023-11-16T16:56:59.418Z,90.87
2023-11-16T16:59:26.745Z,91.14
2023-11-16T17:01:53.671Z,91.14
2023-11-16T17:04:20.741Z,91.26
2023-11-16T17:06:47.811Z,91.34
2023-11-16T17:09:17.516Z,91.24
2023-11-16T17:11:44.558Z,91.44
2023-11-16T17:14:11.483Z,91.25
2023-11-16T17:16:39.474Z,90.97
2023-11-16T17:19:07.318Z,91.46
2023-11-16T17:21:35.151Z,91.22
2023-11-16T17:24:02.621Z,91.53
2023-11-16T17:26:29.383Z,91.53
2023-11-16T17:28:58.738Z,91.59
2023-11-16T17:31:26.358Z,91.78
2023-11-16T17:33:53.861Z,91.88
2023-11-16T17:36:20.762Z,91.76
2023-11-16T17:38:47.830Z,92.05
2023-11-16T17:41:16.411Z,92.42
2023-11-16T17:43:43.798Z,92.49
2023-11-16T17:46:10.990Z,92.40
2023-11-16T17:48:37.978Z,92.66
2023-11-16T17:51:08.355Z,92.62
2023-11-16T17:53:35.274Z,92.70
2023-11-16T17:56:02.465Z,92.58
2023-11-16T17:58:31.630Z,92.73
2023-11-16T18:00:59.483Z,92.81
2023-11-16T18:03:26.785Z,92.69
2023-11-16T18:05:55.645Z,92.52
2023-11-16T18:08:22.771Z,92.47
2023-11-16T18:10:55.148Z,92.34
2023-11-16T18:13:23.814Z,92.66
2023-11-16T18:15:50.986Z,92.66
2023-11-16T18:18:19.235Z,92.25
2023-11-16T18:20:48.368Z,92.23
2023-11-16T18:23:15.760Z,92.09
2023-11-16T18:25:45.265Z,92.05
2023-11-16T18:28:15.688Z,91.60
2023-11-16T18:30:46.478Z,91.45
2023-11-16T18:33:15.357Z,90.87
2023-11-16T18:35:43.147Z,90.44
2023-11-16T18:38:12.337Z,90.13
2023-11-16T18:40:42.138Z,90.05
2023-11-16T18:43:11.956Z,89.83
2023-11-16T18:45:40.213Z,89.54
2023-11-16T18:48:10.597Z,88.98
2023-11-16T18:50:41.710Z,88.61
2023-11-16T18:53:10.237Z,87.89
2023-11-16T18:55:38.098Z,87.12
2023-11-16T18:58:06.792Z,87.11
2023-11-16T19:00:34.666Z,86.81
2023-11-16T19:03:17.194Z,86.57
2023-11-16T19:05:45.802Z,86.86
2023-11-16T19:08:16.099Z,86.58
2023-11-16T19:10:43.958Z,86.03
2023-11-16T19:13:12.485Z,85.66
2023-11-16T19:15:41.947Z,85.54
2023-11-16T19:18:12.248Z,85.88
2023-11-16T19:20:40.094Z,85.90
2023-11-16T19:23:14.011Z,86.07
2023-11-16T19:25:48.318Z,86.50
2023-11-16T19:28:16.049Z,86.42
2023-11-16T19:30:43.982Z,86.50
2023-11-16T19:33:14.019Z,86.86
2023-11-16T19:35:42.733Z,87.04
2023-11-16T19:38:12.852Z,87.17
2023-11-16T19:40:42.456Z,87.64
2023-11-16T19:43:12.226Z,87.90
2023-11-16T19:45:40.320Z,88.11
2023-11-16T19:48:08.804Z,88.30
2023-11-16T19:50:40.233Z,87.93
2023-11-16T19:53:07.834Z,87.87
2023-11-16T19:55:38.405Z,88.32
2023-11-16T19:58:08.722Z,88.55
2023-11-16T20:00:39.097Z,88.45
2023-11-16T20:03:07.946Z,88.68
2023-11-16T20:05:35.501Z,88.96
2023-11-16T20:08:02.735Z,89.74
2023-11-16T20:10:31.939Z,89.84
2023-11-16T20:12:59.444Z,90.36
2023-11-16T20:15:28.243Z,90.63
2023-11-16T20:17:55.458Z,91.29
2023-11-16T20:20:25.956Z,91.41
2023-11-16T20:22:57.482Z,91.48
2023-11-16T20:25:24.727Z,91.83
2023-11-16T20:27:53.973Z,91.66
2023-11-16T20:30:21.534Z,92.19
2023-11-16T20:32:53.188Z,91.98
2023-11-16T20:35:20.238Z,92.40
2023-11-16T20:37:48.124Z,92.04
2023-11-16T20:40:19.128Z,92.11
2023-11-16T20:42:49.941Z,92.15
2023-11-16T20:45:18.547Z,92.29
2023-11-16T20:47:47.858Z,92.33
2023-11-16T20:50:16.131Z,92.34
2023-11-16T20:52:44.933Z,92.56
2023-11-16T20:55:12.334Z,92.58
2023-11-16T20:57:40.737Z,92.88
2023-11-16T21:00:10.254Z,92.90
2023-11-16T21:02:40.452Z,92.95
2023-11-16T21:05:09.606Z,92.83
2023-11-16T21:07:36.503Z,92.80
2023-11-16T21:10:04.606Z,92.99
2023-11-16T21:12:32.885Z,92.76
2023-11-16T21:15:00.219Z,92.62
2023-11-16T21:17:28.498Z,93.08
2023-11-16T21:19:55.854Z,93.12
2023-11-16T21:22:24.203Z,92.89
2023-11-16T21:24:51.422Z,93.38
2023-11-16T21:27:18.477Z,93.08
2023-11-16T21:29:45.566Z,92.77
2023-11-16T21:32:13.922Z,92.88
2023-11-16T21:34:41.891Z,93.30
2023-11-16T21:37:09.993Z,93.53
2023-11-16T21:39:38.151Z,93.20
2023-11-16T21:42:06.629Z,93.14
2023-11-16T21:44:33.766Z,93.71
2023-11-16T21:47:01.679Z,93.57
2023-11-16T21:49:29.182Z,93.47
2023-11-16T21:51:58.901Z,93.78
2023-11-16T21:54:28.996Z,93.55
2023-11-16T21:56:56.158Z,93.83
2023-11-16T21:59:23.014Z,93.68
2023-11-16T22:01:50.483Z,93.98
2023-11-16T22:04:18.036Z,94.05
2023-11-16T22:06:46.307Z,93.83
2023-11-16T22:09:15.035Z,94.00
2023-11-16T22:11:42.775Z,94.01
2023-11-16T22:14:11.085Z,94.15
2023-11-16T22:16:38.897Z,94.34
2023-11-16T22:19:06.749Z,94.27
2023-11-16T22:21:37.828Z,94.49
2023-11-16T22:24:06.440Z,94.11
2023-11-16T22:26:34.059Z,94.48
2023-11-16T22:29:01.506Z,94.36
2023-11-16T22:31:29.090Z,94.55
2023-11-16T22:33:56.625Z,94.20
2023-11-16T22:36:24.068Z,94.29
2023-11-16T22:38:50.920Z,94.21
2023-11-16T22:41:18.263Z,93.75
2023-11-16T22:43:45.141Z,94.29
2023-11-16T22:46:13.342Z,93.94
2023-11-16T22:48:40.412Z,94.48
2023-11-16T22:51:08.042Z,93.92
2023-11-16T22:53:36.148Z,94.17
2023-11-16T22:56:07.066Z,94.62
2023-11-16T22:58:38.676Z,94.66
2023-11-16T23:01:09.809Z,94.29
2023-11-16T23:03:36.782Z,94.71
2023-11-16T23:06:05.906Z,94.49
2023-11-16T23:08:35.186Z,94.38
2023-11-16T23:11:02.740Z,94.65
2023-11-16T23:13:34.235Z,94.41
2023-11-16T23:16:01.488Z,94.58
2023-11-16T23:18:28.857Z,94.82
2023-11-16T23:20:55.777Z,94.60
2023-11-16T23:23:24.176Z,94.75
2023-11-16T23:25:50.820Z,95.33
2023-11-16T23:28:23.147Z,95.33
2023-11-16T23:30:51.023Z,95.21
2023-11-16T23:33:17.866Z,95.29
2023-11-16T23:35:45.849Z,95.35
2023-11-16T23:38:13.125Z,95.20
2023-11-16T23:40:40.633Z,95.29
2023-11-16T23:43:08.893Z,95.23
2023-11-16T23:45:36.127Z,95.62
2023-11-16T23:48:05.000Z,95.47
2023-11-16T23:50:36.570Z,95.86
2023-11-16T23:53:04.602Z,95.68
2023-11-16T23:55:31.784Z,95.67
2023-11-16T23:57:59.324Z,95.51
